Time;durP1;ratioP1;P1;durP2;ratioP2;P2;SDS_P1;SDS_P2;PMS_P1;PMS_P2;Temp;Humidity;BMP_temperature;BMP_pressure;BME280_temperature;BME280_humidity;BME280_pressure;Samples;Min_cycle;Max_cycle;Signal;HPM_P1;HPM_P2
2022/10/01 00:02:04;;;;;;;2.75;2.55;;;17.00;54.40;;;;;;5061441;28;20199;-55
2022/10/01 00:04:31;;;;;;;2.67;2.47;;;17.00;54.60;;;;;;5053980;28;20271;-54
2022/10/01 00:07:03;;;;;;;2.70;2.50;;;17.00;54.40;;;;;;5053661;28;20293;-54
2022/10/01 00:09:31;;;;;;;2.78;2.58;;;17.00;54.40;;;;;;5051562;28;20227;-54
2022/10/01 00:11:59;;;;;;;3.47;2.75;;;16.90;54.50;;;;;;5052541;28;20261;-54
2022/10/01 00:14:27;;;;;;;3.88;3.00;;;16.90;54.30;;;;;;5053650;28;20188;-54
2022/10/01 00:16:54;;;;;;;3.10;2.80;;;16.90;54.30;;;;;;5053745;28;20211;-54
2022/10/01 00:19:22;;;;;;;3.30;2.70;;;16.90;54.40;;;;;;5052308;28;20230;-54
2022/10/01 00:21:49;;;;;;;2.80;2.60;;;16.90;54.50;;;;;;5053871;28;20222;-54
2022/10/01 00:24:16;;;;;;;2.83;2.53;;;16.90;54.60;;;;;;5053757;28;20260;-54
2022/10/01 00:26:44;;;;;;;2.75;2.55;;;16.90;54.50;;;;;;5052116;28;20588;-54
2022/10/01 00:29:13;;;;;;;2.85;2.63;;;16.90;54.50;;;;;;5052136;28;20300;-54
2022/10/01 00:31:40;;;;;;;2.67;2.40;;;16.90;54.50;;;;;;5047853;28;20275;-55
2022/10/01 00:34:08;;;;;;;3.13;2.78;;;16.90;54.70;;;;;;5053742;28;20215;-54
2022/10/01 00:36:35;;;;;;;3.33;2.60;;;16.80;54.50;;;;;;5053379;28;20218;-54
2022/10/01 00:39:02;;;;;;;2.60;2.40;;;16.90;54.60;;;;;;5052163;28;20191;-54
2022/10/01 00:41:30;;;;;;;2.70;2.50;;;16.90;54.50;;;;;;5053839;28;20665;-54
2022/10/01 00:43:59;;;;;;;3.10;2.80;;;16.90;54.50;;;;;;5053639;28;20599;-54
2022/10/01 00:46:29;;;;;;;2.75;2.55;;;16.80;54.50;;;;;;5052928;28;20704;-54
2022/10/01 00:48:58;;;;;;;2.75;2.55;;;16.90;54.50;;;;;;5051869;28;20238;-54
2022/10/01 00:51:25;;;;;;;2.78;2.50;;;16.90;54.50;;;;;;5053353;28;20230;-54
2022/10/01 00:53:53;;;;;;;2.47;2.28;;;16.90;54.40;;;;;;5052892;28;20516;-54
2022/10/01 00:56:20;;;;;;;3.40;2.80;;;16.90;54.70;;;;;;5052415;28;20215;-54
2022/10/01 00:58:53;;;;;;;2.78;2.58;;;16.80;54.40;;;;;;5054841;28;20195;-54
2022/10/01 01:01:20;;;;;;;3.05;2.67;;;16.90;54.60;;;;;;5054657;28;20176;-54
2022/10/01 01:03:49;;;;;;;2.55;2.35;;;16.80;54.70;;;;;;5052258;28;20218;-54
2022/10/01 01:06:16;;;;;;;2.80;2.50;;;16.80;54.60;;;;;;5052294;28;20260;-55
2022/10/01 01:08:43;;;;;;;2.80;2.60;;;16.80;54.60;;;;;;5052277;28;20240;-54
2022/10/01 01:11:14;;;;;;;2.92;2.55;;;16.80;54.70;;;;;;5052003;28;20707;-54
2022/10/01 01:13:44;;;;;;;2.63;2.42;;;16.80;54.80;;;;;;5053155;28;20258;-54
2022/10/01 01:16:12;;;;;;;3.63;2.40;;;16.80;54.70;;;;;;5053045;28;20207;-54
2022/10/01 01:18:42;;;;;;;2.60;2.40;;;16.80;54.60;;;;;;5051660;28;20192;-54
2022/10/01 01:21:31;;;;;;;2.60;2.40;;;16.80;54.80;;;;;;5052730;28;20729;-54
2022/10/01 01:24:40;;;;;;;2.95;2.60;;;16.80;54.80;;;;;;5045960;28;20665;-54
2022/10/01 01:27:31;;;;;;;2.80;2.60;;;16.80;54.90;;;;;;5031722;28;20269;-54
2022/10/01 01:30:02;;;;;;;2.60;2.40;;;16.70;54.70;;;;;;5049987;28;20631;-54
2022/10/01 01:32:31;;;;;;;2.28;2.13;;;16.70;54.70;;;;;;5052709;28;20180;-54
2022/10/01 01:35:01;;;;;;;2.58;2.38;;;16.80;54.90;;;;;;5052517;28;20286;-54
2022/10/01 01:37:30;;;;;;;3.30;2.40;;;16.80;54.90;;;;;;5051172;28;20302;-54
2022/10/01 01:39:57;;;;;;;2.60;2.40;;;16.80;55.00;;;;;;5052603;28;20294;-54
2022/10/01 01:42:26;;;;;;;2.78;2.58;;;16.70;54.90;;;;;;5052796;28;20191;-54
2022/10/01 01:44:54;;;;;;;3.30;2.60;;;16.70;54.90;;;;;;5051163;28;20267;-54
2022/10/01 01:47:23;;;;;;;2.88;2.67;;;16.80;54.90;;;;;;5052560;28;20211;-54
2022/10/01 01:49:51;;;;;;;3.75;2.33;;;16.70;54.90;;;;;;5052331;28;20218;-54
2022/10/01 01:52:18;;;;;;;4.05;2.80;;;16.70;55.00;;;;;;5052487;28;20187;-54
2022/10/01 01:54:46;;;;;;;2.72;2.53;;;16.80;55.10;;;;;;5051166;28;20298;-54
2022/10/01 01:57:14;;;;;;;2.50;2.30;;;16.70;55.10;;;;;;5052168;28;20257;-54
2022/10/01 01:59:41;;;;;;;2.40;2.20;;;16.70;55.00;;;;;;5051154;28;20187;-54
2022/10/01 02:02:09;;;;;;;2.47;2.28;;;16.70;54.90;;;;;;5052321;28;20202;-54
2022/10/01 02:04:38;;;;;;;2.60;2.40;;;16.70;55.10;;;;;;5052639;28;20187;-54
2022/10/01 02:07:25;;;;;;;3.30;2.50;;;16.70;55.00;;;;;;5052625;28;20293;-54
2022/10/01 02:09:55;;;;;;;2.33;2.20;;;16.70;55.00;;;;;;5052684;28;20214;-55
2022/10/01 02:12:29;;;;;;;2.47;2.28;;;16.70;54.90;;;;;;5051141;28;20203;-54
2022/10/01 02:14:57;;;;;;;2.60;2.40;;;16.70;55.00;;;;;;5052823;28;20523;-54
2022/10/01 02:17:30;;;;;;;2.70;2.22;;;16.70;55.00;;;;;;5051269;28;20239;-54
2022/10/01 02:20:00;;;;;;;2.88;2.40;;;16.70;54.90;;;;;;5052798;28;20172;-54
2022/10/01 02:22:30;;;;;;;2.45;2.25;;;16.70;55.00;;;;;;5052255;28;20194;-54
2022/10/01 02:24:58;;;;;;;2.70;2.50;;;16.70;54.90;;;;;;5051183;28;20553;-54
2022/10/01 02:27:27;;;;;;;2.20;2.10;;;16.70;55.10;;;;;;5050870;28;20227;-54
2022/10/01 02:29:54;;;;;;;2.10;2.00;;;16.70;54.90;;;;;;5050817;28;20216;-54
2022/10/01 02:32:22;;;;;;;2.47;2.30;;;16.70;54.90;;;;;;5051007;28;20199;-55
2022/10/01 02:34:49;;;;;;;2.55;2.35;;;16.70;54.90;;;;;;5051957;28;20278;-54
2022/10/01 02:37:18;;;;;;;2.20;2.10;;;16.70;55.00;;;;;;5055422;28;20207;-54
2022/10/01 02:39:46;;;;;;;2.53;2.30;;;16.70;54.90;;;;;;5055615;28;20180;-54
2022/10/01 02:42:13;;;;;;;2.40;2.22;;;16.70;54.80;;;;;;5054503;28;20203;-54
2022/10/01 02:44:41;;;;;;;2.47;2.28;;;16.70;54.90;;;;;;5055547;28;20195;-54
2022/10/01 02:47:10;;;;;;;2.10;2.00;;;16.70;55.10;;;;;;5054154;28;20316;-54
2022/10/01 02:49:40;;;;;;;2.03;1.92;;;16.70;55.00;;;;;;5054009;28;20216;-54
2022/10/01 02:52:09;;;;;;;2.10;2.00;;;16.70;55.00;;;;;;5055333;28;20187;-54
2022/10/01 02:54:42;;;;;;;2.50;2.22;;;16.70;54.90;;;;;;5053940;28;20195;-54
2022/10/01 02:57:26;;;;;;;2.95;2.15;;;16.70;55.00;;;;;;5053857;28;20220;-54
2022/10/01 02:59:55;;;;;;;3.25;2.35;;;16.70;55.00;;;;;;5054014;28;20183;-54
2022/10/01 03:02:24;;;;;;;2.67;2.35;;;16.70;55.00;;;;;;5053829;28;20226;-54
2022/10/01 03:04:51;;;;;;;2.30;2.10;;;16.70;54.90;;;;;;5055049;28;20192;-54
2022/10/01 03:07:18;;;;;;;2.25;2.15;;;16.60;54.80;;;;;;5055168;28;20254;-54
2022/10/01 03:09:48;;;;;;;2.92;2.70;;;16.70;54.90;;;;;;5054780;28;20226;-54
2022/10/01 03:12:15;;;;;;;3.53;2.42;;;16.70;54.90;;;;;;5053652;28;20216;-54
2022/10/01 03:14:44;;;;;;;2.72;2.53;;;16.70;54.90;;;;;;5054978;28;20191;-54
2022/10/01 03:17:11;;;;;;;2.38;2.20;;;16.70;54.80;;;;;;5054733;28;20223;-55
2022/10/01 03:19:39;;;;;;;2.30;2.10;;;16.70;55.00;;;;;;5054876;28;20610;-54
2022/10/01 03:22:06;;;;;;;2.53;2.33;;;16.70;54.90;;;;;;5053476;28;20235;-54
2022/10/01 03:24:33;;;;;;;2.20;2.00;;;16.80;55.00;;;;;;5053510;28;20203;-55
2022/10/01 03:27:02;;;;;;;2.28;2.08;;;16.80;55.40;;;;;;5053718;28;20597;-55
2022/10/01 03:29:29;;;;;;;2.42;2.22;;;16.70;55.30;;;;;;5054664;28;20207;-54
2022/10/01 03:31:56;;;;;;;2.40;2.20;;;16.80;55.20;;;;;;5055360;28;20593;-55
2022/10/01 03:34:23;;;;;;;2.30;2.10;;;16.80;55.20;;;;;;5054707;28;20199;-55
2022/10/01 03:36:51;;;;;;;2.17;1.98;;;16.80;55.40;;;;;;5053465;28;20215;-54
2022/10/01 03:39:18;;;;;;;1.88;1.77;;;16.80;55.40;;;;;;5054890;28;20243;-58
2022/10/01 03:41:45;;;;;;;2.15;2.05;;;16.90;55.40;;;;;;5052845;28;20231;-55
2022/10/01 03:44:14;;;;;;;2.63;2.13;;;16.90;55.90;;;;;;5054315;28;20580;-55
2022/10/01 03:46:42;;;;;;;2.47;2.28;;;16.90;55.20;;;;;;5054484;28;20211;-54
2022/10/01 03:49:09;;;;;;;2.45;2.25;;;16.90;55.20;;;;;;5038566;28;20216;-54
2022/10/01 03:51:37;;;;;;;2.78;2.20;;;16.90;55.80;;;;;;5034772;28;20195;-54
2022/10/01 03:54:04;;;;;;;2.50;2.38;;;16.90;55.20;;;;;;5034457;28;20231;-54
2022/10/01 03:56:32;;;;;;;2.17;2.08;;;16.90;55.00;;;;;;5034222;28;20216;-54
2022/10/01 03:58:59;;;;;;;2.10;1.95;;;17.00;55.00;;;;;;5034162;28;20215;-54
2022/10/01 04:01:27;;;;;;;2.10;2.00;;;16.90;55.60;;;;;;5032753;28;20638;-55
2022/10/01 04:03:54;;;;;;;2.30;2.20;;;16.90;55.00;;;;;;5034299;28;20198;-55
2022/10/01 04:06:21;;;;;;;2.25;2.10;;;17.00;55.00;;;;;;5032612;28;20219;-54
2022/10/01 04:08:49;;;;;;;2.10;2.00;;;16.90;54.90;;;;;;5032646;28;20221;-54
2022/10/01 04:11:15;;;;;;;2.45;2.25;;;17.00;54.90;;;;;;5033723;28;20232;-55
2022/10/01 04:13:43;;;;;;;2.40;2.20;;;17.00;54.90;;;;;;5033496;28;20188;-54
2022/10/01 04:16:10;;;;;;;2.28;2.08;;;17.00;54.80;;;;;;5032430;28;20208;-54
2022/10/01 04:18:40;;;;;;;2.10;2.00;;;16.90;54.60;;;;;;5032437;28;20192;-54
2022/10/01 04:21:07;;;;;;;2.45;2.20;;;16.90;54.50;;;;;;5032278;28;20203;-55
2022/10/01 04:23:34;;;;;;;2.05;1.95;;;17.00;54.70;;;;;;5033612;28;20670;-55
2022/10/01 04:26:02;;;;;;;2.10;2.00;;;16.90;54.50;;;;;;5032749;28;20270;-54
2022/10/01 04:28:29;;;;;;;2.25;2.13;;;16.90;54.50;;;;;;5032171;28;20192;-54
2022/10/01 04:33:37;;;;;;;2.83;2.00;;;17.00;54.50;;;;;;5032628;28;20645;-54
2022/10/01 04:36:06;;;;;;;2.88;2.20;;;16.90;54.30;;;;;;5032121;28;20728;-54
2022/10/01 04:38:33;;;;;;;2.60;2.40;;;16.90;54.40;;;;;;5030584;28;20191;-55
2022/10/01 04:41:00;;;;;;;2.67;2.30;;;16.90;54.60;;;;;;5016274;28;20273;-54
2022/10/01 04:43:27;;;;;;;2.33;2.13;;;16.90;54.90;;;;;;5053401;28;20187;-54
2022/10/01 04:45:54;;;;;;;2.33;2.08;;;16.90;55.40;;;;;;5053217;28;20242;-54
2022/10/01 04:48:21;;;;;;;3.13;2.13;;;17.00;55.30;;;;;;5053282;28;20190;-54
2022/10/01 04:50:48;;;;;;;9.55;2.33;;;16.90;55.20;;;;;;5050073;28;20212;-54
2022/10/01 04:53:17;;;;;;;2.33;2.13;;;16.90;55.20;;;;;;5024612;28;20208;-54
2022/10/01 04:55:45;;;;;;;4.28;2.08;;;17.00;55.40;;;;;;5033220;28;20212;-54
2022/10/01 04:58:12;;;;;;;3.15;2.10;;;16.90;55.40;;;;;;5032405;28;20223;-54
2022/10/01 05:00:39;;;;;;;2.33;2.15;;;17.00;55.70;;;;;;5042080;28;20210;-54
2022/10/01 05:03:07;;;;;;;2.38;1.80;;;17.00;55.60;;;;;;5048963;28;20233;-54
2022/10/01 05:05:34;;;;;;;2.65;1.90;;;16.90;55.60;;;;;;5053449;28;20310;-54
2022/10/01 05:08:01;;;;;;;3.17;2.10;;;17.00;55.50;;;;;;5053146;28;20210;-54
2022/10/01 05:10:30;;;;;;;3.22;2.10;;;17.00;55.60;;;;;;5051205;28;20242;-55
2022/10/01 05:13:00;;;;;;;2.53;1.92;;;17.00;55.40;;;;;;5018541;28;20226;-54
2022/10/01 05:15:27;;;;;;;2.83;1.80;;;17.00;55.60;;;;;;5050396;28;20243;-54
2022/10/01 05:17:54;;;;;;;2.35;1.83;;;17.00;55.20;;;;;;5053203;28;20187;-54
2022/10/01 05:20:23;;;;;;;2.58;2.15;;;17.00;55.00;;;;;;5050810;28;20290;-54
2022/10/01 05:22:50;;;;;;;3.03;1.95;;;17.00;55.10;;;;;;5046003;28;20200;-54
2022/10/01 05:25:18;;;;;;;1.80;1.70;;;17.00;55.00;;;;;;5048754;28;20214;-54
2022/10/01 05:27:46;;;;;;;3.17;1.73;;;17.00;55.00;;;;;;5052720;28;20195;-54
2022/10/01 05:30:18;;;;;;;2.17;1.98;;;17.10;55.10;;;;;;5052596;28;20264;-54
2022/10/01 05:32:54;;;;;;;3.13;1.90;;;17.00;54.90;;;;;;5051362;28;20203;-54
2022/10/01 05:35:21;;;;;;;1.80;1.70;;;17.00;55.00;;;;;;5052879;28;20167;-54
2022/10/01 05:37:48;;;;;;;1.80;1.70;;;17.00;55.00;;;;;;5052627;28;20282;-55
2022/10/01 05:40:15;;;;;;;2.30;1.77;;;17.00;55.00;;;;;;5051260;28;20206;-54
2022/10/01 05:42:46;;;;;;;1.80;1.70;;;17.00;55.00;;;;;;5053033;28;20556;-54
2022/10/01 05:45:14;;;;;;;2.05;1.60;;;17.00;55.00;;;;;;5052761;28;20602;-54
2022/10/01 05:47:43;;;;;;;1.92;1.73;;;17.00;54.90;;;;;;5052537;28;20684;-54
2022/10/01 05:50:10;;;;;;;2.40;1.85;;;17.00;54.90;;;;;;5052334;28;20218;-54
2022/10/01 05:52:37;;;;;;;1.88;1.77;;;17.10;54.80;;;;;;5051526;28;20200;-54
2022/10/01 05:55:05;;;;;;;1.80;1.70;;;17.00;54.70;;;;;;5051196;28;20195;-54
2022/10/01 05:57:32;;;;;;;2.20;2.00;;;17.00;54.60;;;;;;5052626;28;20661;-54
2022/10/01 06:00:01;;;;;;;2.30;1.50;;;17.00;54.70;;;;;;5051068;28;20195;-55
2022/10/01 06:02:28;;;;;;;2.28;1.83;;;17.00;54.60;;;;;;5052416;28;20665;-54
2022/10/01 06:04:55;;;;;;;1.80;1.70;;;17.10;54.70;;;;;;5051114;28;20199;-54
2022/10/01 06:07:22;;;;;;;2.47;1.95;;;17.00;54.70;;;;;;5053443;28;20297;-53
2022/10/01 06:09:49;;;;;;;1.83;1.70;;;17.00;54.60;;;;;;5107116;23;21344;-81
2022/10/01 06:12:16;;;;;;;2.08;1.88;;;17.10;54.60;;;;;;5039037;28;20306;-81
2022/10/01 06:14:43;;;;;;;1.90;1.80;;;17.10;54.60;;;;;;5039371;28;20205;-82
2022/10/01 06:17:12;;;;;;;1.90;1.65;;;17.10;54.50;;;;;;5039095;28;20226;-82
2022/10/01 06:19:39;;;;;;;1.85;1.75;;;17.10;54.60;;;;;;5038922;28;20257;-81
2022/10/01 06:22:06;;;;;;;2.75;2.10;;;17.10;54.70;;;;;;5039491;28;20215;-82
2022/10/01 06:24:34;;;;;;;2.50;2.30;;;17.10;54.50;;;;;;5038878;28;20685;-82
2022/10/01 06:27:01;;;;;;;2.28;2.00;;;17.10;54.50;;;;;;5040139;28;20200;-82
2022/10/01 06:29:28;;;;;;;2.03;1.90;;;17.10;54.50;;;;;;5039454;28;20218;-82
2022/10/01 06:31:55;;;;;;;3.03;2.15;;;17.10;54.50;;;;;;5041303;28;20227;-82
2022/10/01 06:34:25;;;;;;;2.20;2.00;;;17.20;54.60;;;;;;5039328;28;20254;-82
2022/10/01 06:36:52;;;;;;;3.00;2.10;;;17.10;54.50;;;;;;5055449;28;20655;-82
2022/10/01 06:39:19;;;;;;;2.38;1.85;;;17.20;54.50;;;;;;5038899;28;20206;-82
2022/10/01 06:41:47;;;;;;;2.20;2.00;;;17.20;54.50;;;;;;5038520;28;20217;-82
2022/10/01 06:44:15;;;;;;;2.63;2.00;;;17.20;54.50;;;;;;5038646;28;20651;-81
2022/10/01 06:46:42;;;;;;;2.65;1.83;;;17.20;54.50;;;;;;5038667;28;20290;-82
2022/10/01 06:49:09;;;;;;;2.05;1.92;;;17.20;55.20;;;;;;5038455;28;20257;-82
2022/10/01 06:54:25;;;;;;;1.90;1.80;;;17.30;54.60;;;;;;5056854;28;20196;-82
2022/10/01 06:56:52;;;;;;;2.10;1.90;;;17.30;54.70;;;;;;5039201;28;20199;-82
2022/10/01 06:59:20;;;;;;;2.08;1.98;;;17.20;54.70;;;;;;5039387;28;20195;-82
2022/10/01 07:01:49;;;;;;;2.80;2.60;;;17.30;54.80;;;;;;5038471;28;20206;-82
2022/10/01 07:04:16;;;;;;;3.65;2.50;;;17.30;54.80;;;;;;5038519;28;20295;-82
2022/10/01 07:06:45;;;;;;;2.65;2.10;;;17.30;54.90;;;;;;5038465;28;20265;-82
2022/10/01 07:09:12;;;;;;;2.25;2.00;;;17.30;54.90;;;;;;5038137;28;20199;-82
2022/10/01 07:11:40;;;;;;;2.40;2.20;;;17.30;54.90;;;;;;5038804;28;20724;-82
2022/10/01 07:14:07;;;;;;;2.17;2.00;;;17.30;54.90;;;;;;5038259;28;20203;-82
2022/10/01 07:16:37;;;;;;;2.17;1.98;;;17.30;54.80;;;;;;5038378;28;20206;-82
2022/10/01 07:19:04;;;;;;;2.53;2.08;;;17.30;54.80;;;;;;5038538;28;20204;-82
2022/10/01 07:21:32;;;;;;;1.92;1.83;;;17.30;54.80;;;;;;5040477;28;20698;-82
2022/10/01 07:24:01;;;;;;;2.20;2.00;;;17.30;54.80;;;;;;5039244;28;20302;-82
2022/10/01 07:26:28;;;;;;;2.38;2.00;;;17.30;54.80;;;;;;5040809;28;20202;-82
2022/10/01 07:28:55;;;;;;;2.90;2.30;;;17.40;54.90;;;;;;5042985;28;20195;-82
2022/10/01 07:31:23;;;;;;;2.38;2.17;;;17.40;55.00;;;;;;5043020;28;20241;-82
2022/10/01 07:33:57;;;;;;;2.03;1.92;;;17.30;54.90;;;;;;5044363;28;20223;-82
2022/10/01 07:36:24;;;;;;;1.88;1.73;;;17.40;55.00;;;;;;5043577;28;20188;-82
2022/10/01 07:38:51;;;;;;;2.20;2.10;;;17.40;55.00;;;;;;5054790;28;20647;-82
2022/10/01 07:41:21;;;;;;;2.30;2.10;;;17.40;54.90;;;;;;5038164;28;20208;-82
2022/10/01 07:43:48;;;;;;;1.80;1.70;;;17.40;55.00;;;;;;5038406;28;20219;-82
2022/10/01 07:46:15;;;;;;;2.30;2.10;;;17.40;55.00;;;;;;5038870;28;20286;-82
2022/10/01 07:48:45;;;;;;;3.65;3.13;;;17.40;55.00;;;;;;5039107;28;20191;-82
2022/10/01 07:51:12;;;;;;;3.05;2.50;;;17.40;55.00;;;;;;5055762;28;20253;-82
2022/10/01 07:53:39;;;;;;;2.40;2.20;;;17.40;55.00;;;;;;5038070;28;20214;-82
2022/10/01 07:56:06;;;;;;;2.45;2.13;;;17.40;54.90;;;;;;5038083;28;20655;-83
2022/10/01 07:58:36;;;;;;;4.28;3.80;;;17.40;54.90;;;;;;5056210;28;20682;-82
2022/10/01 08:01:04;;;;;;;4.05;3.67;;;17.40;54.90;;;;;;5055790;28;20190;-82
2022/10/01 08:03:31;;;;;;;4.70;4.30;;;17.40;54.90;;;;;;5037518;28;20269;-82
2022/10/01 08:05:58;;;;;;;5.80;4.60;;;17.40;55.00;;;;;;5038146;28;20229;-82
2022/10/01 08:08:25;;;;;;;5.50;5.00;;;17.40;55.00;;;;;;5054402;28;20283;-82
2022/10/01 08:10:53;;;;;;;4.97;4.55;;;17.40;55.60;;;;;;5037128;28;20223;-82
2022/10/01 08:13:23;;;;;;;4.65;4.25;;;17.40;55.00;;;;;;5037550;28;20306;-82
2022/10/01 08:15:53;;;;;;;5.60;5.10;;;17.40;55.00;;;;;;5037184;28;20214;-82
2022/10/01 08:18:20;;;;;;;4.90;4.50;;;17.50;55.10;;;;;;5037170;28;20222;-82
2022/10/01 08:20:49;;;;;;;4.57;4.18;;;17.50;55.20;;;;;;5036871;28;20648;-82
2022/10/01 08:23:17;;;;;;;4.60;3.17;;;17.50;55.10;;;;;;5036852;28;20215;-82
2022/10/01 08:25:46;;;;;;;2.80;2.60;;;17.40;55.00;;;;;;5036773;28;20200;-83
2022/10/01 08:28:14;;;;;;;2.85;2.40;;;17.50;55.10;;;;;;5036723;28;20290;-82
2022/10/01 08:30:41;;;;;;;2.80;2.03;;;17.50;55.10;;;;;;5036195;28;20216;-82
2022/10/01 08:33:10;;;;;;;2.38;2.17;;;17.50;55.00;;;;;;5036576;28;20253;-82
2022/10/01 08:35:38;;;;;;;2.53;2.15;;;17.50;54.90;;;;;;5036708;28;20236;-82
2022/10/01 08:38:06;;;;;;;1.90;1.80;;;17.60;54.90;;;;;;5037535;28;20207;-82
2022/10/01 08:40:37;;;;;;;2.30;1.95;;;17.60;54.90;;;;;;5053581;28;20296;-82
2022/10/01 08:43:05;;;;;;;2.30;1.80;;;17.60;55.00;;;;;;5037137;28;20207;-82
2022/10/01 08:45:35;;;;;;;2.00;1.80;;;17.60;54.90;;;;;;5037608;28;20663;-82
2022/10/01 08:48:05;;;;;;;1.67;1.58;;;17.60;54.90;;;;;;5037790;28;20290;-82
2022/10/01 08:50:40;;;;;;;2.00;1.80;;;17.60;54.90;;;;;;5053424;28;20314;-83
2022/10/01 08:53:11;;;;;;;2.10;2.00;;;17.70;54.90;;;;;;5054542;28;20206;-82
2022/10/01 08:55:38;;;;;;;2.53;2.33;;;17.70;55.50;;;;;;5039946;28;20290;-82
2022/10/01 08:58:07;;;;;;;2.92;2.63;;;17.70;54.90;;;;;;5041716;28;20203;-82
2022/10/01 09:00:34;;;;;;;2.60;2.40;;;17.70;54.90;;;;;;5041539;28;20202;-82
2022/10/01 09:03:05;;;;;;;2.15;1.95;;;17.70;54.90;;;;;;5042157;28;20289;-82
2022/10/01 09:05:37;;;;;;;1.85;1.67;;;17.70;54.90;;;;;;5041757;28;20195;-82
2022/10/01 09:08:14;;;;;;;2.05;1.50;;;17.70;54.80;;;;;;5041058;28;20241;-82
2022/10/01 09:10:44;;;;;;;1.67;1.58;;;17.80;54.90;;;;;;5057142;28;20215;-82
2022/10/01 09:13:28;;;;;;;1.80;1.70;;;17.80;54.80;;;;;;5036299;28;20594;-82
2022/10/01 09:15:58;;;;;;;2.00;1.58;;;17.80;54.80;;;;;;5035913;28;20195;-82
2022/10/01 09:18:29;;;;;;;1.90;1.60;;;17.80;54.80;;;;;;5035849;28;20195;-82
2022/10/01 09:20:58;;;;;;;1.80;1.70;;;17.80;54.80;;;;;;5035796;28;20674;-82
2022/10/01 09:23:27;;;;;;;2.25;1.80;;;17.80;54.80;;;;;;5035500;28;20223;-82
2022/10/01 09:25:56;;;;;;;1.67;1.55;;;17.90;54.90;;;;;;5035800;28;20203;-82
2022/10/01 09:28:23;;;;;;;2.00;1.80;;;17.90;54.90;;;;;;5035750;28;20230;-82
2022/10/01 09:30:55;;;;;;;1.95;1.60;;;17.90;54.90;;;;;;5035497;28;20219;-82
2022/10/01 09:33:23;;;;;;;1.92;1.83;;;17.90;54.80;;;;;;5052178;28;20227;-82
2022/10/01 09:35:55;;;;;;;1.70;1.60;;;17.90;54.80;;;;;;5035497;28;20206;-82
2022/10/01 09:38:25;;;;;;;1.77;1.67;;;17.90;54.80;;;;;;5035811;28;20829;-82
2022/10/01 09:40:54;;;;;;;2.28;2.08;;;17.90;54.80;;;;;;5036557;28;20195;-82
2022/10/01 09:43:22;;;;;;;1.90;1.80;;;17.90;54.80;;;;;;5041937;28;20728;-82
2022/10/01 09:45:49;;;;;;;1.70;1.60;;;18.00;54.90;;;;;;5044007;28;20214;-82
2022/10/01 09:48:27;;;;;;;1.90;1.70;;;17.90;54.80;;;;;;5042798;28;20662;-82
2022/10/01 09:50:57;;;;;;;1.80;1.70;;;17.90;54.70;;;;;;5061697;28;20535;-82
2022/10/01 09:53:31;;;;;;;1.95;1.83;;;18.00;54.80;;;;;;5046353;28;20245;-82
2022/10/01 09:56:00;;;;;;;1.60;1.50;;;18.00;54.80;;;;;;5044847;28;20219;-82
2022/10/01 09:58:28;;;;;;;1.63;1.52;;;17.90;54.80;;;;;;5042498;28;20207;-82
2022/10/01 10:00:55;;;;;;;1.75;1.52;;;18.00;54.80;;;;;;5040788;28;20199;-82
2022/10/01 10:03:23;;;;;;;1.60;1.50;;;18.00;54.80;;;;;;5041182;28;20222;-82
2022/10/01 10:05:50;;;;;;;1.60;1.40;;;18.00;54.80;;;;;;5041248;28;20209;-82
2022/10/01 10:08:23;;;;;;;1.77;1.67;;;18.00;54.80;;;;;;5048228;28;20191;-82
2022/10/01 10:10:54;;;;;;;1.75;1.40;;;17.90;54.70;;;;;;5048593;28;20223;-82
2022/10/01 10:13:33;;;;;;;1.60;1.50;;;18.00;54.90;;;;;;5063239;28;20231;-83
2022/10/01 10:16:08;;;;;;;1.73;1.40;;;18.00;54.80;;;;;;5045250;28;20199;-82
2022/10/01 10:18:37;;;;;;;1.50;1.40;;;18.00;54.90;;;;;;5042941;28;20195;-82
2022/10/01 10:21:06;;;;;;;1.48;1.38;;;17.90;54.80;;;;;;5042047;28;20192;-83
2022/10/01 10:23:34;;;;;;;1.40;1.30;;;18.00;54.80;;;;;;5042093;28;20224;-82
2022/10/01 10:26:03;;;;;;;1.40;1.30;;;18.00;54.90;;;;;;5040903;28;20209;-83
2022/10/01 10:28:39;;;;;;;1.55;1.45;;;18.00;54.90;;;;;;5041001;28;20195;-83
2022/10/01 10:31:09;;;;;;;1.40;1.30;;;18.00;54.80;;;;;;5042272;28;20766;-83
2022/10/01 10:33:37;;;;;;;1.50;1.40;;;18.00;54.80;;;;;;5043215;28;20219;-83
2022/10/01 10:36:05;;;;;;;1.40;1.30;;;18.00;54.80;;;;;;5040285;28;20203;-83
2022/10/01 10:38:33;;;;;;;1.42;1.35;;;18.00;54.80;;;;;;5044226;28;20204;-82
2022/10/01 10:41:02;;;;;;;1.92;1.38;;;18.00;54.80;;;;;;5040411;28;20199;-82
2022/10/01 10:43:32;;;;;;;1.50;1.38;;;18.00;54.80;;;;;;5042608;28;20211;-83
2022/10/01 10:45:59;;;;;;;1.50;1.40;;;18.00;54.90;;;;;;5058408;28;20187;-83
2022/10/01 10:48:30;;;;;;;1.60;1.50;;;18.00;54.80;;;;;;5039667;28;20784;-83
2022/10/01 10:51:01;;;;;;;1.13;1.02;;;18.00;54.90;;;;;;5038837;28;20318;-83
2022/10/01 10:53:32;;;;;;;2.13;1.35;;;18.00;54.70;;;;;;5039582;28;20219;-83
2022/10/01 10:56:00;;;;;;;1.48;1.38;;;18.10;54.90;;;;;;5038808;28;20218;-82
2022/10/01 10:58:29;;;;;;;1.90;1.63;;;18.10;55.00;;;;;;5042175;28;20301;-82
2022/10/01 11:00:58;;;;;;;1.20;1.10;;;18.10;54.80;;;;;;5039167;28;20202;-82
2022/10/01 11:03:26;;;;;;;1.55;1.45;;;18.10;54.80;;;;;;5038529;28;20211;-82
2022/10/01 11:05:55;;;;;;;1.50;1.40;;;18.10;54.70;;;;;;5038230;28;20222;-83
2022/10/01 11:08:24;;;;;;;1.30;1.20;;;18.20;54.80;;;;;;5041157;28;20203;-83
2022/10/01 11:10:58;;;;;;;1.30;1.20;;;18.20;54.80;;;;;;5038413;28;20227;-83
2022/10/01 11:13:35;;;;;;;1.10;1.10;;;18.20;54.60;;;;;;5038732;28;20675;-82
2022/10/01 11:16:13;;;;;;;1.40;1.30;;;18.30;54.50;;;;;;5038352;28;20195;-83
2022/10/01 11:18:50;;;;;;;1.40;1.30;;;18.30;54.40;;;;;;5057578;28;20186;-82
2022/10/01 11:21:27;;;;;;;1.65;1.55;;;18.30;54.30;;;;;;5039539;28;20184;-83
2022/10/01 11:24:04;;;;;;;1.40;1.30;;;18.50;54.20;;;;;;5039342;28;20193;-83
2022/10/01 11:26:37;;;;;;;1.40;1.25;;;18.50;54.20;;;;;;5039144;28;20195;-83
2022/10/01 11:29:16;;;;;;;1.40;1.30;;;18.50;54.30;;;;;;5038713;28;20187;-83
2022/10/01 11:31:46;;;;;;;1.70;1.60;;;18.50;54.10;;;;;;5055721;28;20215;-83
2022/10/01 11:34:48;;;;;;;1.42;1.33;;;18.50;54.10;;;;;;5038965;28;20690;-82
2022/10/01 11:37:26;;;;;;;1.40;1.30;;;18.50;53.80;;;;;;5029631;28;20724;-82
2022/10/01 11:39:54;;;;;;;2.05;1.95;;;18.50;53.90;;;;;;5041387;28;20229;-82
2022/10/01 11:42:41;;;;;;;1.65;1.50;;;18.50;54.00;;;;;;5057066;28;20222;-82
2022/10/01 11:45:15;;;;;;;1.50;1.40;;;18.50;54.00;;;;;;5038404;28;20286;-82
2022/10/01 11:47:46;;;;;;;1.73;1.20;;;18.60;54.20;;;;;;5039434;28;20218;-82
2022/10/01 11:50:15;;;;;;;1.42;1.33;;;18.50;54.10;;;;;;5041641;28;20567;-82
2022/10/01 11:52:43;;;;;;;1.85;1.40;;;18.60;54.20;;;;;;5039922;28;20602;-81
2022/10/01 12:00:55;;;;;;;1.38;1.25;;;18.50;54.20;;;;;;5027418;28;20613;-81
2022/10/01 12:03:23;;;;;;;1.63;1.30;;;18.60;54.50;;;;;;5038657;28;20215;-82
2022/10/01 12:05:51;;;;;;;1.10;1.00;;;18.60;54.40;;;;;;5037500;28;20282;-82
2022/10/01 12:08:20;;;;;;;1.17;1.08;;;18.60;54.40;;;;;;5041101;28;20238;-82
2022/10/01 12:10:49;;;;;;;1.35;1.20;;;18.50;54.40;;;;;;5040045;28;20213;-82
2022/10/01 12:13:19;;;;;;;2.70;1.30;;;18.50;54.50;;;;;;5038673;28;20211;-81
2022/10/01 12:15:50;;;;;;;1.40;1.30;;;18.50;54.50;;;;;;5039023;28;20211;-82
2022/10/01 12:18:21;;;;;;;1.20;1.10;;;18.50;54.40;;;;;;5038623;28;20195;-80
2022/10/01 12:20:49;;;;;;;1.30;1.20;;;18.50;54.40;;;;;;5039024;28;20192;-80
2022/10/01 12:23:18;;;;;;;1.20;1.05;;;18.50;54.60;;;;;;5039184;28;20215;-80
2022/10/01 12:25:49;;;;;;;1.48;1.20;;;18.50;54.50;;;;;;5050957;28;20202;-81
2022/10/01 12:28:18;;;;;;;1.52;1.38;;;18.50;54.70;;;;;;5050261;28;20256;-81
2022/10/01 12:30:48;;;;;;;2.80;1.30;;;18.50;55.00;;;;;;5043358;28;20725;-79
2022/10/01 12:33:36;;;;;;;3.28;1.30;;;18.50;55.10;;;;;;5038109;28;20245;-80
2022/10/01 12:36:06;;;;;;;2.10;1.35;;;18.60;55.40;;;;;;5038285;28;20230;-81
2022/10/01 12:38:49;;;;;;;1.38;1.27;;;18.60;55.50;;;;;;5039279;28;20227;-80
2022/10/01 12:41:23;;;;;;;2.42;1.40;;;18.60;55.60;;;;;;5039568;28;20184;-80
2022/10/01 12:44:01;;;;;;;1.55;1.40;;;18.60;55.50;;;;;;5037558;28;20319;-80
2022/10/01 12:46:33;;;;;;;1.40;1.30;;;18.70;55.70;;;;;;5037708;28;20198;-80
2022/10/01 12:49:06;;;;;;;1.85;1.20;;;18.70;55.70;;;;;;5038493;28;20188;-80
2022/10/01 12:51:41;;;;;;;2.83;1.50;;;18.70;55.70;;;;;;5054377;28;20582;-80
2022/10/01 12:54:33;;;;;;;1.52;1.23;;;18.80;55.80;;;;;;5037446;28;20206;-80
2022/10/01 12:57:03;;;;;;;1.77;1.48;;;18.80;56.00;;;;;;5042541;28;20211;-80
2022/10/01 12:59:40;;;;;;;1.83;1.30;;;18.80;56.00;;;;;;5038972;28;20195;-80
2022/10/01 13:02:21;;;;;;;1.83;1.20;;;18.80;56.10;;;;;;5037926;28;20299;-79
2022/10/01 13:05:03;;;;;;;4.05;1.52;;;18.90;56.30;;;;;;5037502;28;20199;-79
2022/10/01 13:07:47;;;;;;;2.78;1.35;;;18.90;56.40;;;;;;5054378;28;20191;-80
2022/10/01 13:10:20;;;;;;;2.47;1.20;;;18.90;56.10;;;;;;5036873;28;20203;-79
2022/10/01 13:12:56;;;;;;;2.08;1.20;;;18.90;56.80;;;;;;5037491;28;20426;-80